Time;durP1;ratioP1;P1;durP2;ratioP2;P2;SDS_P1;SDS_P2;PMS_P1;PMS_P2;Temp;Humidity;BMP_temperature;BMP_pressure;BME280_temperature;BME280_humidity;BME280_pressure;Samples;Min_cycle;Max_cycle;Signal;HPM_P1;HPM_P2
2022/11/24 00:01:24;;;;;;;27.63;15.02;;;;;;;-1.92;90.46;100865.75;4918051;28;20048;-65
2022/11/24 00:07:09;;;;;;;14.02;8.20;;;;;;;-1.55;91.29;100867.31;4928617;28;20057;-64
2022/11/24 00:15:42;;;;;;;10.30;6.13;;;;;;;-0.85;91.56;100858.16;4918118;28;20049;-64
2022/11/24 00:18:45;;;;;;;10.48;6.78;;;;;;;-0.51;91.20;100860.34;4915863;28;20284;-64
2022/11/24 00:21:25;;;;;;;8.43;5.30;;;;;;;-0.30;89.75;100860.28;4944003;28;20040;-65
2022/11/24 00:29:41;;;;;;;10.77;5.22;;;;;;;-0.07;83.99;100849.16;4911106;28;20046;-63
2022/11/24 00:32:25;;;;;;;9.73;5.50;;;;;;;-0.18;83.71;100829.91;4926072;28;20040;-63
2022/11/24 00:35:06;;;;;;;11.25;5.00;;;;;;;-0.02;83.46;100845.06;4918784;28;20059;-64
2022/11/24 00:37:48;;;;;;;9.80;5.32;;;;;;;0.14;83.48;100843.03;4918121;28;20057;-64
2022/11/24 00:40:41;;;;;;;9.50;5.72;;;;;;;0.25;82.50;100841.72;4910434;28;20134;-64
2022/11/24 00:43:20;;;;;;;11.55;5.47;;;;;;;0.23;81.90;100827.06;4900506;28;20149;-64
2022/11/24 00:46:09;;;;;;;6.95;4.97;;;;;;;0.39;80.75;100839.59;4898806;28;20052;-65
2022/11/24 00:48:59;;;;;;;8.18;4.72;;;;;;;0.30;80.29;100783.63;4871161;28;20048;-64
2022/11/24 00:51:53;;;;;;;10.70;4.85;;;;;;;0.62;79.38;100819.78;4948069;28;20040;-63
2022/11/24 00:54:44;;;;;;;9.57;5.05;;;;;;;0.78;79.33;100824.63;4886911;28;20051;-64
2022/11/24 00:57:23;;;;;;;7.63;4.85;;;;;;;1.01;79.37;100824.47;4946103;28;20421;-63
2022/11/24 00:59:57;;;;;;;;;;;;;;;1.21;78.91;100820.81;4932926;28;20048;-63
2022/11/24 01:02:41;;;;;;;10.63;5.32;;;;;;;1.46;77.84;100821.56;4966266;28;20326;-63
2022/11/24 01:05:21;;;;;;;8.00;5.10;;;;;;;1.82;76.40;100823.44;4932195;28;20075;-64
2022/11/24 01:08:14;;;;;;;8.45;5.15;;;;;;;1.97;75.94;100800.66;4903836;28;20063;-63
2022/11/24 01:10:53;;;;;;;11.05;5.72;;;;;;;1.95;74.35;100812.66;4903744;28;20036;-63
2022/11/24 01:14:03;;;;;;;6.22;4.60;;;;;;;2.01;74.04;100812.81;4933747;28;20057;-63
2022/11/24 01:16:46;;;;;;;12.55;5.50;;;;;;;2.18;74.15;100814.97;4932351;28;20040;-62
2022/11/24 01:22:48;;;;;;;8.65;5.22;;;;;;;1.69;72.87;100799.03;4924459;28;20079;-63
2022/11/24 01:25:43;;;;;;;10.30;5.20;;;;;;;1.48;72.78;100794.16;4901620;28;20048;-63
2022/11/24 01:28:33;;;;;;;10.05;5.28;;;;;;;1.44;72.79;100807.75;4919357;28;20051;-65
2022/11/24 01:31:31;;;;;;;7.28;5.32;;;;;;;1.44;73.07;100803.47;4890725;28;20041;-64
2022/11/24 01:37:18;;;;;;;8.23;4.90;;;;;;;1.53;72.38;100800.31;4923514;28;20071;-64
2022/11/24 01:39:57;;;;;;;8.32;5.25;;;;;;;1.68;72.55;100808.47;4909174;28;20040;-64
2022/11/24 01:42:54;;;;;;;8.52;4.63;;;;;;;1.83;71.02;100791.69;4888448;28;20056;-65
2022/11/24 01:45:57;;;;;;;9.40;5.43;;;;;;;1.88;70.52;100800.44;4923206;28;20044;-65
2022/11/24 01:48:45;;;;;;;8.73;5.05;;;;;;;1.91;69.25;100790.19;4925703;28;20064;-64
2022/11/24 01:51:28;;;;;;;8.85;4.63;;;;;;;1.58;69.32;100738.63;4901800;28;20053;-65
2022/11/24 01:54:14;;;;;;;9.02;5.13;;;;;;;1.88;69.72;100803.00;4912668;28;20092;-64
2022/11/24 01:56:56;;;;;;;9.15;5.30;;;;;;;1.85;68.77;100802.94;4881650;28;20065;-65
2022/11/24 01:59:57;;;;;;;8.32;5.03;;;;;;;1.91;67.10;100805.66;4923333;28;20051;-66
2022/11/24 02:02:48;;;;;;;12.07;5.60;;;;;;;1.84;67.75;100798.59;4931326;28;20070;-66
2022/11/24 02:05:30;;;;;;;9.10;5.68;;;;;;;1.78;67.60;100808.72;4955466;28;20036;-65
2022/11/24 02:08:26;;;;;;;11.77;6.30;;;;;;;1.78;68.56;100803.59;4900634;28;20086;-65
2022/11/24 02:11:11;;;;;;;9.73;5.78;;;;;;;1.96;68.20;100805.78;4878149;28;20056;-64
2022/11/24 02:14:23;;;;;;;9.77;5.70;;;;;;;2.05;68.18;100788.88;4939486;28;20058;-65
2022/11/24 02:17:19;;;;;;;11.85;7.25;;;;;;;2.42;68.48;100796.66;4880071;28;20045;-65
2022/11/24 02:20:24;;;;;;;13.82;7.32;;;;;;;2.50;67.11;100783.13;4921127;28;20049;-62
2022/11/24 02:23:15;;;;;;;12.15;7.43;;;;;;;2.49;66.60;100776.22;4903967;28;20289;-63
2022/11/24 02:26:11;;;;;;;16.35;7.75;;;;;;;2.80;66.88;100798.50;4924305;28;20056;-63
2022/11/24 02:29:07;;;;;;;17.73;8.38;;;;;;;2.81;66.00;100783.88;4914336;28;20036;-64
2022/11/24 02:32:01;;;;;;;17.65;8.35;;;;;;;2.70;65.41;100795.66;4894732;28;20040;-64
2022/11/24 02:34:48;;;;;;;14.07;7.15;;;;;;;2.63;65.87;100788.59;4927195;28;20546;-64
2022/11/24 02:37:40;;;;;;;11.57;6.30;;;;;;;2.56;66.06;100767.78;4842870;28;20044;-63
2022/11/24 02:40:37;;;;;;;12.05;6.25;;;;;;;2.61;66.82;100743.81;4864074;28;20149;-63
2022/11/24 02:43:27;;;;;;;10.25;5.97;;;;;;;2.88;66.49;100780.59;4879884;28;20049;-63
2022/11/24 02:52:04;;;;;;;10.63;5.22;;;;;;;2.98;66.71;100777.38;4898179;28;20045;-64
2022/11/24 02:54:36;;;;;;;10.75;5.32;;;;;;;2.92;67.21;100779.84;4866941;28;20053;-63
2022/11/24 02:57:10;;;;;;;9.77;4.80;;;;;;;2.43;68.50;100768.34;4891686;28;20086;-64
2022/11/24 02:59:56;;;;;;;9.45;5.60;;;;;;;2.32;69.71;100777.50;4836057;28;20058;-64
2022/11/24 03:02:39;;;;;;;10.63;5.63;;;;;;;2.14;70.49;100778.78;4893353;28;20045;-64
2022/11/24 03:08:28;;;;;;;9.80;5.88;;;;;;;1.68;71.83;100720.88;4889164;28;20407;-63
2022/11/24 03:11:14;;;;;;;8.00;5.25;;;;;;;1.81;72.69;100762.44;4935144;28;20051;-63
2022/11/24 03:14:07;;;;;;;8.88;5.18;;;;;;;1.67;73.12;100765.50;4863301;28;20047;-64
2022/11/24 03:16:50;;;;;;;17.45;5.15;;;;;;;1.61;73.29;100749.88;4876510;28;20057;-63
2022/11/24 03:19:37;;;;;;;11.40;5.07;;;;;;;1.80;73.69;100755.50;4934964;28;21099;-63
2022/11/24 03:22:18;;;;;;;9.50;5.38;;;;;;;1.85;73.48;100759.13;4914315;28;20033;-63
2022/11/24 03:25:01;;;;;;;12.07;5.15;;;;;;;1.97;73.69;100754.25;4928856;28;20040;-65
2022/11/24 03:27:39;;;;;;;9.73;5.25;;;;;;;1.95;73.58;100755.94;4934383;28;20067;-65
2022/11/24 03:30:23;;;;;;;10.40;5.03;;;;;;;1.43;74.04;100713.31;4873340;28;20134;-65
2022/11/24 03:33:06;;;;;;;10.18;4.93;;;;;;;1.52;75.06;100749.59;4928945;28;20044;-65
2022/11/24 03:36:15;;;;;;;13.23;5.60;;;;;;;1.38;75.32;100756.97;4909943;28;20524;-65
2022/11/24 03:38:49;;;;;;;10.68;5.53;;;;;;;1.13;76.27;100734.78;4942000;28;20050;-65
2022/11/24 03:41:32;;;;;;;9.88;5.43;;;;;;;1.13;76.78;100749.34;4917640;28;20918;-64
2022/11/24 03:44:21;;;;;;;9.38;5.53;;;;;;;1.00;77.48;100748.09;4939215;28;20040;-65
2022/11/24 03:47:13;;;;;;;9.85;5.15;;;;;;;0.96;78.16;100746.28;4908905;28;20043;-65
2022/11/24 03:49:56;;;;;;;9.27;5.25;;;;;;;1.05;78.45;100747.41;4922971;27;20049;-66
2022/11/24 03:55:36;;;;;;;9.75;5.40;;;;;;;1.23;77.66;100739.38;4948241;27;20064;-66
2022/11/24 03:58:17;;;;;;;9.07;6.00;;;;;;;1.25;77.25;100736.84;4925403;28;20087;-64
2022/11/24 04:03:48;;;;;;;14.00;5.78;;;;;;;1.34;76.47;100728.50;4918814;28;20048;-65
2022/11/24 04:06:44;;;;;;;12.50;5.90;;;;;;;1.43;76.28;100729.63;4924075;28;20152;-64
2022/11/24 04:09:46;;;;;;;13.23;5.72;;;;;;;1.49;76.50;100726.34;4919441;28;20512;-65
2022/11/24 04:12:47;;;;;;;11.75;5.32;;;;;;;1.49;76.16;100714.34;4893397;28;20044;-64
2022/11/24 04:15:38;;;;;;;14.75;6.40;;;;;;;1.59;76.89;100725.78;4897479;28;20044;-65
2022/11/24 04:18:50;;;;;;;14.35;6.20;;;;;;;1.66;75.92;100732.84;4912051;28;20044;-64
2022/11/24 04:21:39;;;;;;;12.68;5.78;;;;;;;1.51;76.24;100722.13;4956249;28;20455;-65
2022/11/24 04:24:18;;;;;;;15.20;6.22;;;;;;;1.44;76.03;100733.06;4907688;28;20053;-64
2022/11/24 04:27:37;;;;;;;11.57;6.18;;;;;;;1.29;76.10;100716.34;4895061;28;20051;-66
2022/11/24 04:30:30;;;;;;;16.17;6.40;;;;;;;1.15;76.42;100720.25;4917604;28;20086;-65
2022/11/24 04:33:23;;;;;;;11.23;5.93;;;;;;;1.12;77.25;100715.00;4925295;28;20695;-65
2022/11/24 04:36:09;;;;;;;14.70;6.53;;;;;;;1.11;77.19;100720.97;4936467;28;20067;-65
2022/11/24 04:39:10;;;;;;;11.48;6.30;;;;;;;1.09;77.41;100717.50;4909212;28;20049;-65
2022/11/24 04:42:01;;;;;;;11.90;6.82;;;;;;;1.14;77.13;100721.06;4878667;28;20048;-64
2022/11/24 04:44:58;;;;;;;21.52;9.77;;;;;;;1.16;77.23;100700.53;4898539;28;20044;-66
2022/11/24 04:47:38;;;;;;;25.60;10.52;;;;;;;1.33;76.98;100726.75;4937301;28;20333;-65
2022/11/24 04:50:33;;;;;;;31.52;11.95;;;;;;;1.29;77.15;100695.75;4946041;28;20129;-64
2022/11/24 04:53:22;;;;;;;21.23;8.95;;;;;;;1.42;77.19;100706.41;4895034;28;20036;-65
2022/11/24 04:55:58;;;;;;;22.33;10.02;;;;;;;1.39;77.00;100726.91;4909368;28;20113;-64
2022/11/24 04:58:42;;;;;;;16.38;7.32;;;;;;;1.17;77.24;100697.97;4928149;28;20102;-65
2022/11/24 05:04:28;;;;;;;11.15;5.78;;;;;;;1.15;77.50;100717.69;4895379;28;20050;-64
2022/11/24 05:07:24;;;;;;;10.30;5.05;;;;;;;1.03;77.91;100717.31;4880065;28;20086;-63
2022/11/24 05:13:20;;;;;;;10.48;4.88;;;;;;;0.97;78.46;100711.97;4911447;28;20121;-63
2022/11/24 05:16:02;;;;;;;13.32;4.75;;;;;;;1.04;78.15;100719.06;4961519;28;20055;-64
2022/11/24 05:18:59;;;;;;;6.25;4.55;;;;;;;0.91;77.90;100702.38;4931810;28;20241;-63
2022/11/24 05:21:39;;;;;;;11.32;4.70;;;;;;;0.90;77.61;100715.19;4882840;28;20321;-63
2022/11/24 05:24:28;;;;;;;7.50;4.80;;;;;;;0.84;77.57;100726.19;4936033;28;20056;-62
2022/11/24 05:27:09;;;;;;;6.28;4.10;;;;;;;0.75;77.82;100716.50;4915756;28;20230;-63
2022/11/24 05:29:51;;;;;;;7.95;4.43;;;;;;;0.74;78.01;100730.16;4920557;28;20056;-62
2022/11/24 05:35:29;;;;;;;7.35;4.15;;;;;;;0.69;77.67;100742.00;4907633;28;20078;-63
2022/11/24 05:38:12;;;;;;;4.10;3.20;;;;;;;0.67;77.60;100738.50;4871103;28;20085;-63
2022/11/24 05:40:57;;;;;;;5.68;3.20;;;;;;;0.66;78.02;100747.06;4927942;28;20044;-63
2022/11/24 05:43:41;;;;;;;6.03;3.40;;;;;;;0.36;77.86;100693.84;4931508;28;20059;-63
2022/11/24 05:46:18;;;;;;;6.28;3.47;;;;;;;0.67;78.08;100743.66;4881004;28;20496;-62
2022/11/24 05:52:23;;;;;;;8.98;4.80;;;;;;;0.76;77.79;100756.81;4899694;28;20047;-62
2022/11/24 05:55:03;;;;;;;4.55;3.10;;;;;;;0.72;77.63;100762.69;4894413;28;20055;-62
2022/11/24 05:57:39;;;;;;;5.07;3.22;;;;;;;0.66;78.23;100762.50;4914326;28;20193;-62
2022/11/24 06:00:31;;;;;;;5.30;3.80;;;;;;;0.65;78.68;100760.75;4916307;28;20056;-63
2022/11/24 06:03:10;;;;;;;5.45;3.33;;;;;;;0.05;79.22;100675.69;4940025;28;20113;-64
2022/11/24 06:05:49;;;;;;;8.73;4.13;;;;;;;0.56;79.13;100770.75;4943893;28;20060;-64
2022/11/24 06:08:52;;;;;;;7.13;4.22;;;;;;;0.53;79.82;100771.53;4938955;28;20060;-63
2022/11/24 06:11:31;;;;;;;46.03;17.40;;;;;;;0.40;80.01;100759.97;4904776;28;20068;-62
2022/11/24 06:14:49;;;;;;;25.42;11.45;;;;;;;0.39;80.37;100763.34;4914141;28;20056;-61
2022/11/24 06:17:53;;;;;;;19.48;8.57;;;;;;;0.34;81.14;100771.75;4920912;28;20063;-64
2022/11/24 06:23:54;;;;;;;22.77;10.85;;;;;;;0.18;82.27;100784.09;4929222;28;20062;-62
2022/11/24 06:26:37;;;;;;;10.73;6.38;;;;;;;0.15;82.39;100788.22;4899149;28;20062;-63
2022/11/24 06:29:31;;;;;;;15.73;7.72;;;;;;;-0.02;82.88;100775.69;4870362;28;20038;-62
2022/11/24 06:32:34;;;;;;;;;;;;;;;;;;;;;
2022/11/24 06:35:16;;;;;;;8.75;4.32;;;;;;;0.05;83.55;100793.88;4936445;28;20045;-63
2022/11/24 06:37:58;;;;;;;7.60;4.15;;;;;;;0.06;83.54;100793.06;4939819;28;20047;-64
2022/11/24 06:40:40;;;;;;;8.27;3.95;;;;;;;-0.02;83.74;100795.38;4929012;28;20325;-63
2022/11/24 06:43:26;;;;;;;5.82;4.28;;;;;;;-0.06;83.89;100799.50;4927518;28;20068;-62
2022/11/24 06:46:09;;;;;;;9.43;5.03;;;;;;;-0.10;84.21;100802.81;4921024;28;20044;-63
2022/11/24 06:48:58;;;;;;;6.10;3.88;;;;;;;-0.40;84.64;100755.47;4928633;28;20488;-63
2022/11/24 06:51:41;;;;;;;7.22;4.50;;;;;;;-0.24;84.93;100797.19;4927069;28;20139;-63
2022/11/24 06:57:25;;;;;;;9.38;4.88;;;;;;;-0.29;85.47;100811.53;4911012;28;20051;-63
2022/11/24 07:00:09;;;;;;;7.22;4.78;;;;;;;-0.57;85.66;100768.59;4923506;28;20298;-63
2022/11/24 07:02:59;;;;;;;7.30;4.60;;;;;;;-0.43;85.91;100798.19;4909227;28;20044;-62
2022/11/24 07:05:51;;;;;;;8.60;5.35;;;;;;;-0.45;86.03;100815.25;4898874;28;20064;-61
2022/11/24 07:08:38;;;;;;;11.45;6.03;;;;;;;-0.55;86.41;100805.47;4947091;28;20056;-63
2022/11/24 07:11:34;;;;;;;9.98;6.20;;;;;;;-0.62;86.42;100820.56;4932280;28;20048;-64
2022/11/24 07:14:32;;;;;;;9.68;5.93;;;;;;;-0.79;86.53;100818.25;4909538;28;20063;-63
2022/11/24 07:17:21;;;;;;;8.60;4.35;;;;;;;-0.89;86.94;100819.56;4909358;28;20060;-62
2022/11/24 07:20:08;;;;;;;10.23;5.82;;;;;;;-0.94;86.95;100822.78;4937121;28;20370;-62
2022/11/24 07:23:03;;;;;;;8.07;5.68;;;;;;;-0.97;87.53;100815.84;4928815;28;20366;-63
2022/11/24 07:25:54;;;;;;;8.13;6.05;;;;;;;-0.99;87.55;100820.03;4940655;28;20110;-61
2022/11/24 07:28:36;;;;;;;7.25;5.38;;;;;;;-1.05;87.47;100824.91;4896621;28;20076;-63
2022/11/24 07:31:26;;;;;;;10.20;4.88;;;;;;;-1.13;87.62;100834.00;4946968;28;20097;-61
2022/11/24 07:34:13;;;;;;;6.63;4.22;;;;;;;-1.17;87.66;100832.13;4934781;28;20541;-62
2022/11/24 07:36:54;;;;;;;7.25;4.65;;;;;;;-1.24;87.85;100833.56;4887000;28;20148;-63
2022/11/24 07:39:29;;;;;;;6.07;4.05;;;;;;;-1.35;87.95;100835.72;4874349;28;20057;-64
2022/11/24 07:42:10;;;;;;;6.93;4.00;;;;;;;-1.38;87.69;100845.81;4924447;28;20079;-62
2022/11/24 07:44:50;;;;;;;7.80;4.00;;;;;;;-1.50;87.97;100845.31;4888513;28;20049;-64
2022/11/24 07:47:52;;;;;;;10.15;5.22;;;;;;;-1.55;87.87;100841.69;4882812;28;20071;-63
2022/11/24 07:50:43;;;;;;;38.53;12.85;;;;;;;-1.69;88.06;100828.31;4921203;28;20049;-61
2022/11/24 07:59:31;;;;;;;9.45;5.22;;;;;;;-1.81;88.61;100846.59;4897620;28;20076;-62
2022/11/24 08:02:21;;;;;;;9.68;5.80;;;;;;;-1.89;88.87;100847.94;4912197;28;20090;-62
2022/11/24 08:05:37;;;;;;;10.07;5.40;;;;;;;-1.91;89.17;100847.00;4890512;28;20096;-61
2022/11/24 08:08:27;;;;;;;8.07;5.00;;;;;;;-1.92;89.44;100852.94;4932284;28;20053;-61
2022/11/24 08:11:19;;;;;;;12.90;5.55;;;;;;;-1.96;89.71;100858.75;4919081;28;20125;-61
2022/11/24 08:13:58;;;;;;;10.30;5.82;;;;;;;-1.98;89.80;100865.47;4912343;28;20232;-63
2022/11/24 08:16:43;;;;;;;8.77;5.25;;;;;;;-2.03;90.32;100866.97;4888241;28;20100;-61
2022/11/24 08:22:40;;;;;;;10.18;5.80;;;;;;;-2.14;90.57;100863.94;4922635;28;20166;-62
2022/11/24 08:25:33;;;;;;;8.80;5.40;;;;;;;-2.19;90.86;100871.41;4887261;28;20314;-62
2022/11/24 08:28:17;;;;;;;9.05;5.68;;;;;;;-2.22;90.85;100866.16;4907852;28;20447;-61
2022/11/24 08:31:12;;;;;;;9.70;5.47;;;;;;;-2.31;90.67;100875.09;4865211;28;20089;-63
2022/11/24 08:37:06;;;;;;;7.50;5.20;;;;;;;-2.38;91.02;100879.91;4940950;28;20056;-59
2022/11/24 08:40:09;;;;;;;7.88;5.05;;;;;;;-2.41;91.08;100879.78;4918749;28;20089;-62
2022/11/24 08:43:04;;;;;;;23.27;8.32;;;;;;;-2.47;91.28;100884.66;4947592;28;20048;-60
2022/11/24 08:46:03;;;;;;;17.67;7.45;;;;;;;-2.48;91.19;100882.88;4886180;28;20619;-62
2022/11/24 08:49:02;;;;;;;27.55;13.65;;;;;;;-2.59;91.17;100878.09;4916851;28;20084;-62
2022/11/24 08:51:45;;;;;;;16.90;9.73;;;;;;;-2.62;91.30;100879.69;4927041;28;20504;-59
2022/11/24 08:54:20;;;;;;;15.02;8.93;;;;;;;-2.69;91.91;100875.09;4930497;28;20066;-61
2022/11/24 08:57:02;;;;;;;18.60;8.35;;;;;;;-2.64;92.51;100888.97;4919098;28;20056;-61
2022/11/24 09:00:07;;;;;;;17.42;7.95;;;;;;;-2.65;92.42;100889.75;4899441;28;20044;-61
2022/11/24 09:02:55;;;;;;;20.90;11.48;;;;;;;-2.72;92.17;100887.75;4843756;28;20689;-62
2022/11/24 09:05:40;;;;;;;14.48;8.57;;;;;;;-2.76;92.25;100884.97;4853332;28;20033;-63
2022/11/24 09:08:47;;;;;;;14.48;8.13;;;;;;;-2.82;92.41;100888.97;4935953;28;20044;-60
2022/11/24 09:11:30;;;;;;;16.63;8.52;;;;;;;-2.96;92.72;100905.34;4899458;28;20107;-62
2022/11/24 09:14:16;;;;;;;36.15;15.68;;;;;;;-3.10;92.94;100896.13;4874348;28;20055;-62
2022/11/24 09:17:18;;;;;;;43.35;18.63;;;;;;;-3.20;93.18;100896.47;4878893;28;20057;-60
2022/11/24 09:19:56;;;;;;;54.03;22.63;;;;;;;-3.25;93.05;100893.69;4877252;28;20969;-63
2022/11/24 09:25:36;;;;;;;149.88;59.90;;;;;;;-3.32;93.21;100906.97;4914912;28;20051;-62
2022/11/24 09:28:22;;;;;;;127.65;48.90;;;;;;;-3.35;93.92;100905.13;4931657;28;20058;-63
2022/11/24 09:34:47;;;;;;;94.22;36.25;;;;;;;-3.44;93.62;100906.34;4910750;28;20083;-63
2022/11/24 09:37:25;;;;;;;;;;;;;;;-3.59;93.44;100912.47;4905724;28;20110;-64
2022/11/24 09:40:10;;;;;;;67.30;29.38;;;;;;;-3.77;93.50;100901.28;4940688;28;19934;-63
2022/11/24 09:43:07;;;;;;;61.95;29.35;;;;;;;-3.81;93.42;100909.59;4922150;28;20060;-62
2022/11/24 09:46:06;;;;;;;42.40;20.80;;;;;;;-3.88;94.18;100917.75;4893453;28;20052;-63
2022/11/24 09:49:00;;;;;;;31.17;16.50;;;;;;;-3.90;94.60;100915.97;4922140;28;20036;-62
2022/11/24 09:51:48;;;;;;;;;;;;;;;-3.82;94.87;100910.38;4916935;28;20048;-64
2022/11/24 09:54:30;;;;;;;19.45;10.25;;;;;;;-3.72;95.18;100910.97;4931252;28;19931;-63
2022/11/24 09:57:24;;;;;;;24.00;12.02;;;;;;;-3.94;95.14;100868.13;4915879;28;20047;-64
2022/11/24 10:00:20;;;;;;;75.50;28.77;;;;;;;-3.72;94.84;100925.38;4920713;28;20041;-62
2022/11/24 10:03:04;;;;;;;64.43;26.30;;;;;;;-3.66;95.02;100915.50;4902664;28;20052;-63
2022/11/24 10:05:56;;;;;;;39.85;17.45;;;;;;;-3.54;95.46;100917.81;4933627;28;20096;-63
2022/11/24 10:09:17;;;;;;;36.72;16.60;;;;;;;-3.44;95.37;100908.91;4981209;28;20056;-62
2022/11/24 10:12:05;;;;;;;45.42;21.02;;;;;;;-3.37;95.61;100913.53;4918878;28;20117;-62
2022/11/24 10:18:29;;;;;;;29.55;14.63;;;;;;;-3.19;95.63;100934.91;4942272;28;20051;-62
2022/11/24 10:21:38;;;;;;;24.23;12.52;;;;;;;-3.06;95.96;100924.47;4899384;28;20114;-63
2022/11/24 10:24:42;;;;;;;18.15;9.32;;;;;;;-2.99;96.43;100919.69;4934005;28;20055;-62
2022/11/24 10:27:20;;;;;;;11.30;7.93;;;;;;;-2.91;96.23;100926.91;4923651;28;20111;-62
2022/11/24 10:30:07;;;;;;;13.38;6.68;;;;;;;-2.79;96.48;100921.50;4921148;28;20119;-63
2022/11/24 10:35:56;;;;;;;9.18;5.03;;;;;;;-2.81;96.27;100882.19;4911768;28;20033;-62
2022/11/24 10:38:53;;;;;;;9.77;5.32;;;;;;;-3.11;96.12;100835.59;4927897;28;20053;-65
2022/11/24 10:42:06;;;;;;;20.05;9.68;;;;;;;-2.66;96.34;100908.47;4915064;28;20051;-62
2022/11/24 10:45:02;;;;;;;34.95;12.75;;;;;;;-2.59;96.01;100919.03;4920656;28;20040;-61
2022/11/24 10:47:43;;;;;;;23.05;10.43;;;;;;;-2.55;96.10;100932.00;4896362;28;20044;-63
2022/11/24 10:50:36;;;;;;;21.35;9.75;;;;;;;-2.52;96.49;100915.91;4916932;28;20044;-62
2022/11/24 10:53:26;;;;;;;32.15;13.82;;;;;;;-2.35;96.74;100925.25;4923418;28;20309;-61
2022/11/24 10:56:20;;;;;;;37.40;15.90;;;;;;;-3.14;95.92;100790.31;4930220;28;20049;-63
2022/11/24 10:59:39;;;;;;;22.55;13.15;;;;;;;-2.24;95.83;100934.31;4949802;27;21135;-63
2022/11/24 11:02:37;;;;;;;24.67;12.43;;;;;;;-2.17;95.77;100930.38;4893064;28;20042;-63
2022/11/24 11:08:33;;;;;;;17.58;9.38;;;;;;;-2.15;95.80;100923.59;4904976;28;20219;-63
2022/11/24 11:11:33;;;;;;;15.05;9.20;;;;;;;-2.06;95.24;100933.41;4922267;28;20108;-63
2022/11/24 11:14:47;;;;;;;16.60;8.50;;;;;;;-2.01;95.21;100937.06;4927813;28;20072;-63
2022/11/24 11:18:06;;;;;;;16.45;9.23;;;;;;;-1.95;95.03;100947.56;4902103;28;20056;-62
2022/11/24 11:21:08;;;;;;;24.33;10.98;;;;;;;-1.92;95.15;100945.16;4907309;28;20109;-64
2022/11/24 11:24:03;;;;;;;17.08;10.18;;;;;;;-1.86;95.20;100936.88;4954465;28;20052;-63
2022/11/24 11:26:53;;;;;;;20.73;9.55;;;;;;;-1.82;94.94;100931.03;4898844;28;20045;-62
2022/11/24 11:29:43;;;;;;;17.33;10.15;;;;;;;-1.79;94.53;100929.50;4879878;28;20045;-65
2022/11/24 11:32:56;;;;;;;19.08;10.13;;;;;;;-1.77;94.27;100927.03;4931719;28;20238;-63
2022/11/24 11:36:08;;;;;;;19.25;10.73;;;;;;;-1.80;94.40;100927.78;4889891;28;20138;-62
2022/11/24 11:38:53;;;;;;;19.02;11.32;;;;;;;-1.77;94.03;100933.03;4822835;28;20101;-62
2022/11/24 11:41:35;;;;;;;25.38;11.75;;;;;;;-1.70;94.30;100933.28;4893128;28;20053;-62
2022/11/24 11:44:35;;;;;;;20.13;11.30;;;;;;;-1.67;94.39;100934.31;4828892;28;20081;-63
2022/11/24 11:50:46;;;;;;;20.02;10.20;;;;;;;-1.62;93.54;100944.72;4944055;28;20048;-62
2022/11/24 11:53:59;;;;;;;12.65;8.38;;;;;;;-1.60;93.69;100950.81;4922546;28;20045;-61
2022/11/24 12:00:06;;;;;;;14.68;7.78;;;;;;;-1.58;93.42;100955.19;4915469;28;20044;-62
2022/11/24 12:03:09;;;;;;;15.82;7.45;;;;;;;-1.54;93.19;100957.09;4921198;28;22395;-63
2022/11/24 12:06:06;;;;;;;17.63;8.07;;;;;;;-1.57;93.33;100950.97;4896073;28;20105;-63
2022/11/24 12:12:39;;;;;;;17.23;7.88;;;;;;;-1.48;93.17;100961.59;4888121;28;20051;-62
2022/11/24 12:15:32;;;;;;;17.42;7.30;;;;;;;-1.49;92.56;100957.28;4868056;28;20049;-62
2022/11/24 12:21:45;;;;;;;22.10;7.75;;;;;;;-1.47;91.77;100963.38;4881373;28;20057;-62
2022/11/24 12:24:38;;;;;;;23.88;8.85;;;;;;;-1.45;91.40;100966.84;4857771;28;20041;-62
2022/11/24 12:27:30;;;;;;;12.40;6.03;;;;;;;-1.48;91.30;100961.59;4873816;28;20131;-63
2022/11/24 12:30:19;;;;;;;18.88;7.35;;;;;;;-1.50;90.47;100963.22;4884922;28;20144;-62
2022/11/24 12:33:20;;;;;;;23.70;9.15;;;;;;;-1.46;90.61;100975.34;4885592;28;20050;-61
2022/11/24 12:36:06;;;;;;;17.40;6.55;;;;;;;-1.44;89.98;100978.88;4862123;28;20095;-63
2022/11/24 12:39:12;;;;;;;12.23;5.88;;;;;;;-1.39;90.18;100977.38;4875410;28;20057;-63
2022/11/24 12:42:08;;;;;;;13.55;6.22;;;;;;;-1.41;89.61;100973.88;4875085;28;20088;-63
2022/11/24 12:45:13;;;;;;;11.88;4.65;;;;;;;-1.53;88.28;100952.81;4888241;28;20049;-62
2022/11/24 12:48:14;;;;;;;11.07;4.68;;;;;;;-1.45;88.35;100974.53;4891814;28;20082;-62
2022/11/24 12:50:59;;;;;;;10.43;4.07;;;;;;;-1.37;88.69;100974.91;4937065;28;20051;-62
2022/11/24 12:53:55;;;;;;;7.43;4.57;;;;;;;-1.40;88.49;100965.38;4934226;28;20046;-62
2022/11/24 12:56:50;;;;;;;10.77;3.78;;;;;;;-1.37;88.26;100970.63;4944267;28;20052;-64
2022/11/24 12:59:55;;;;;;;11.68;4.25;;;;;;;-1.37;87.98;100970.63;4954651;28;20052;-63
2022/11/24 13:06:47;;;;;;;8.57;4.20;;;;;;;-1.33;87.53;100967.38;4931342;28;20046;-61
2022/11/24 13:09:46;;;;;;;9.60;4.43;;;;;;;-1.35;87.43;100968.13;4936246;28;20054;-63
2022/11/24 13:12:22;;;;;;;8.43;4.75;;;;;;;-1.37;87.19;100968.06;4928869;28;20061;-62
2022/11/24 13:15:16;;;;;;;13.63;6.07;;;;;;;-1.37;87.36;100965.50;4943152;28;20079;-61
2022/11/24 13:18:49;;;;;;;8.32;4.53;;;;;;;-1.47;87.92;100973.63;4907869;28;20054;-62
2022/11/24 13:22:10;;;;;;;12.30;4.63;;;;;;;-1.52;88.62;100975.09;4896514;28;20139;-62
2022/11/24 13:24:44;;;;;;;7.47;4.63;;;;;;;-1.54;88.89;100976.72;4883116;28;20108;-62
2022/11/24 13:27:48;;;;;;;11.20;4.88;;;;;;;-1.52;89.13;100975.09;4918567;28;20040;-62
2022/11/24 13:31:15;;;;;;;9.25;4.75;;;;;;;-1.54;89.37;100962.22;4878744;28;20134;-61
2022/11/24 13:34:02;;;;;;;9.10;5.35;;;;;;;-1.47;89.38;100968.50;4878357;28;20099;-62
2022/11/24 13:36:57;;;;;;;16.70;5.13;;;;;;;-1.51;89.22;100976.84;4876802;28;20042;-62
2022/11/24 13:40:04;;;;;;;9.93;4.90;;;;;;;-1.70;88.50;100948.66;4865758;28;20078;-61
2022/11/24 13:43:18;;;;;;;8.15;4.50;;;;;;;-1.53;88.54;100960.53;4880611;28;20041;-62
2022/11/24 13:49:33;;;;;;;6.82;3.83;;;;;;;-1.42;87.89;100984.94;4859690;28;20069;-61
2022/11/24 13:52:47;;;;;;;13.25;3.88;;;;;;;-1.43;87.04;100985.75;4867274;28;20049;-63
2022/11/24 13:55:43;;;;;;;6.07;4.00;;;;;;;-1.50;86.95;100983.72;4865946;28;20042;-63
2022/11/24 13:58:40;;;;;;;11.45;4.35;;;;;;;-1.55;86.66;100990.31;4870609;28;20050;-61
2022/11/24 14:01:27;;;;;;;6.50;4.10;;;;;;;-1.54;87.01;100981.84;4845661;28;20053;-62
2022/11/24 14:04:31;;;;;;;8.98;4.38;;;;;;;-1.56;86.76;100983.47;4874695;28;20061;-64
2022/11/24 14:07:30;;;;;;;5.20;3.60;;;;;;;-1.90;86.28;100933.28;4859482;28;20045;-64
2022/11/24 14:10:51;;;;;;;8.40;4.05;;;;;;;-1.61;86.35;100984.94;4877686;28;20048;-64
2022/11/24 14:16:26;;;;;;;11.40;4.00;;;;;;;-1.82;86.44;100985.75;4931715;28;20064;-63
2022/11/24 14:19:13;;;;;;;7.40;4.20;;;;;;;-1.84;86.88;100995.03;4944798;28;20049;-64
2022/11/24 14:25:01;;;;;;;8.45;4.30;;;;;;;-1.99;87.07;100986.66;4947375;28;20048;-62
2022/11/24 14:27:49;;;;;;;9.60;4.05;;;;;;;-2.04;86.83;100990.69;4919813;28;20058;-63
2022/11/24 14:30:35;;;;;;;11.30;4.70;;;;;;;-2.08;86.91;100996.47;4898363;28;20088;-63
2022/11/24 14:33:17;;;;;;;10.80;4.18;;;;;;;-2.29;87.06;100981.88;4892861;28;20056;-62
2022/11/24 14:35:51;;;;;;;8.05;4.28;;;;;;;-2.40;87.33;100972.78;4900568;28;20052;-63
2022/11/24 14:38:51;;;;;;;;;;;;;;;;;;;;;
2022/11/24 14:41:45;;;;;;;9.43;4.70;;;;;;;-2.36;87.84;101000.31;4964684;28;20106;-61
2022/11/24 14:44:29;;;;;;;10.75;4.40;;;;;;;-2.38;88.12;101002.78;4890620;28;20044;-62
2022/11/24 14:47:11;;;;;;;8.88;4.50;;;;;;;-2.47;88.29;100991.22;4925513;28;20053;-61
2022/11/24 14:50:00;;;;;;;10.50;4.68;;;;;;;-2.39;88.37;101005.28;4917761;28;20084;-64
2022/11/24 14:56:13;;;;;;;12.02;5.47;;;;;;;-2.44;88.42;101011.88;4931686;28;20071;-63
2022/11/24 14:59:01;;;;;;;13.63;6.13;;;;;;;-2.53;88.39;101002.03;4930409;28;20466;-62
2022/11/24 15:01:55;;;;;;;11.27;5.65;;;;;;;-2.62;88.67;101002.50;4890314;28;20141;-63
2022/11/24 15:04:34;;;;;;;10.50;6.13;;;;;;;-2.72;88.81;100995.19;4944214;28;20080;-62
2022/11/24 15:07:39;;;;;;;12.18;5.60;;;;;;;-2.68;89.15;101011.53;4949818;28;20040;-62
2022/11/24 15:13:26;;;;;;;10.35;5.05;;;;;;;-2.73;89.43;101013.88;4917710;28;20084;-62